Time;durP1;ratioP1;P1;durP2;ratioP2;P2;SDS_P1;SDS_P2;PMS_P1;PMS_P2;Temp;Humidity;BMP_temperature;BMP_pressure;BME280_temperature;BME280_humidity;BME280_pressure;Samples;Min_cycle;Max_cycle;Signal;HPM_P1;HPM_P2
2021/09/20 00:00:30;;;;;;;5.10;3.00;;;12.20;99.90;;;;;;5012734;28;20857;-81
2021/09/20 00:02:56;;;;;;;6.17;3.50;;;12.30;99.90;;;;;;5012391;28;20398;-81
2021/09/20 00:05:21;;;;;;;6.85;3.45;;;12.30;99.90;;;;;;5012328;28;20402;-79
2021/09/20 00:07:47;;;;;;;4.83;3.30;;;12.20;99.90;;;;;;5012377;28;20364;-78
2021/09/20 00:10:12;;;;;;;5.20;3.70;;;12.20;99.90;;;;;;5012369;28;20450;-81
2021/09/20 00:12:39;;;;;;;7.68;3.63;;;12.20;99.90;;;;;;5012199;28;20387;-78
2021/09/20 00:15:07;;;;;;;4.70;3.45;;;12.30;99.90;;;;;;5012524;28;20394;-79
2021/09/20 00:17:33;;;;;;;4.13;3.20;;;12.20;99.90;;;;;;5012285;28;20836;-81
2021/09/20 00:19:59;;;;;;;6.07;3.60;;;12.20;99.90;;;;;;5012344;28;20383;-82
2021/09/20 00:22:24;;;;;;;5.57;3.37;;;12.30;99.90;;;;;;5012365;28;20394;-80
2021/09/20 00:24:50;;;;;;;7.03;3.60;;;12.30;99.90;;;;;;5011958;28;20497;-79
2021/09/20 00:27:15;;;;;;;3.73;3.30;;;12.30;99.90;;;;;;5012014;28;20387;-79
2021/09/20 00:29:41;;;;;;;3.85;3.20;;;12.30;99.90;;;;;;5012043;28;20367;-79
2021/09/20 00:32:07;;;;;;;5.83;3.50;;;12.40;99.90;;;;;;5011757;28;20392;-81
2021/09/20 00:34:32;;;;;;;6.32;3.15;;;12.30;99.90;;;;;;4994203;28;20801;-80
2021/09/20 00:36:58;;;;;;;5.50;3.50;;;12.30;99.90;;;;;;5010475;28;20384;-82
2021/09/20 00:39:23;;;;;;;6.10;3.70;;;12.40;99.90;;;;;;5011717;28;20808;-81
2021/09/20 00:41:49;;;;;;;6.40;3.40;;;12.30;99.90;;;;;;5011638;28;20470;-80
2021/09/20 00:44:14;;;;;;;5.13;3.63;;;12.30;99.90;;;;;;5011819;28;20367;-79
2021/09/20 00:46:40;;;;;;;6.20;3.78;;;12.30;99.90;;;;;;5011710;28;20470;-79
2021/09/20 00:49:06;;;;;;;5.20;3.53;;;12.30;99.90;;;;;;5011344;28;20836;-81
2021/09/20 00:51:31;;;;;;;5.73;3.50;;;12.20;99.90;;;;;;5011199;28;20818;-80
2021/09/20 00:53:57;;;;;;;5.93;3.88;;;12.20;99.90;;;;;;5011040;28;20376;-82
2021/09/20 00:56:23;;;;;;;5.10;3.40;;;12.10;99.90;;;;;;5011265;28;20861;-80
2021/09/20 00:58:49;;;;;;;6.40;3.67;;;12.10;99.90;;;;;;5009531;28;20418;-78
2021/09/20 01:01:14;;;;;;;5.10;3.60;;;12.10;99.90;;;;;;5010921;28;20391;-78
2021/09/20 01:03:40;;;;;;;5.15;3.50;;;12.10;99.90;;;;;;5010857;28;20715;-80
2021/09/20 01:06:07;;;;;;;5.65;3.63;;;12.10;99.90;;;;;;5010625;28;20410;-79
2021/09/20 01:08:32;;;;;;;4.45;3.33;;;12.10;99.90;;;;;;5010297;28;20903;-82
2021/09/20 01:10:58;;;;;;;5.57;3.65;;;12.20;99.90;;;;;;5010215;28;20375;-78
2021/09/20 01:13:24;;;;;;;5.90;3.97;;;12.30;99.90;;;;;;5010399;28;20398;-78
2021/09/20 01:15:52;;;;;;;5.90;3.33;;;12.10;99.90;;;;;;5010315;28;20382;-80
2021/09/20 01:18:18;;;;;;;5.90;4.05;;;12.20;99.90;;;;;;4992639;28;20453;-81
2021/09/20 01:20:43;;;;;;;3.70;2.97;;;12.10;99.90;;;;;;5010364;28;20866;-78
2021/09/20 01:23:09;;;;;;;5.18;3.40;;;12.10;99.90;;;;;;4992962;28;20382;-80
2021/09/20 01:25:35;;;;;;;5.03;3.27;;;12.20;99.90;;;;;;5010286;28;20375;-79
2021/09/20 01:28:00;;;;;;;6.53;3.30;;;12.20;99.90;;;;;;5009929;28;20734;-78
2021/09/20 01:30:26;;;;;;;7.10;4.13;;;12.20;99.90;;;;;;5010235;28;20391;-81
2021/09/20 01:32:52;;;;;;;6.68;4.00;;;12.10;99.90;;;;;;5010286;28;20387;-79
2021/09/20 01:35:20;;;;;;;6.53;3.80;;;12.10;99.90;;;;;;5010194;28;20857;-81
2021/09/20 01:37:45;;;;;;;6.75;3.80;;;12.10;99.90;;;;;;5009745;28;20411;-82
2021/09/20 01:40:12;;;;;;;7.80;3.72;;;12.10;99.90;;;;;;4992523;28;20466;-80
2021/09/20 01:42:39;;;;;;;6.68;3.47;;;12.00;99.90;;;;;;5010322;28;20379;-80
2021/09/20 01:45:06;;;;;;;5.30;3.45;;;12.00;99.90;;;;;;4993181;28;20738;-79
2021/09/20 01:47:31;;;;;;;5.28;3.42;;;11.90;99.90;;;;;;5009194;28;20470;-81
2021/09/20 01:49:57;;;;;;;5.38;3.72;;;11.90;99.90;;;;;;5010650;28;20792;-79
2021/09/20 01:52:22;;;;;;;5.20;3.80;;;12.00;99.90;;;;;;4993057;28;20395;-79
2021/09/20 01:54:48;;;;;;;5.43;3.67;;;12.00;99.90;;;;;;5010774;28;20513;-80
2021/09/20 01:57:14;;;;;;;3.83;3.20;;;12.10;99.90;;;;;;5010228;28;20442;-79
2021/09/20 01:59:39;;;;;;;4.77;3.43;;;12.20;99.90;;;;;;5010605;28;20372;-79
2021/09/20 02:02:05;;;;;;;7.33;4.00;;;12.10;99.90;;;;;;4992819;28;20421;-79
2021/09/20 02:04:31;;;;;;;5.03;3.85;;;12.10;99.90;;;;;;5010205;28;20394;-81
2021/09/20 02:06:56;;;;;;;4.93;3.40;;;12.00;99.90;;;;;;5009798;28;20386;-81
2021/09/20 02:09:22;;;;;;;5.67;3.37;;;12.00;99.90;;;;;;5010393;28;20462;-82
2021/09/20 02:11:48;;;;;;;7.18;3.70;;;12.00;99.90;;;;;;5009769;28;20376;-81
2021/09/20 02:14:13;;;;;;;5.63;3.90;;;12.00;99.90;;;;;;5009918;28;20379;-82
2021/09/20 02:16:39;;;;;;;5.80;3.73;;;12.10;99.90;;;;;;5009686;28;20864;-82
2021/09/20 02:19:05;;;;;;;4.93;3.72;;;12.00;99.90;;;;;;5009467;28;20513;-79
2021/09/20 02:21:30;;;;;;;5.63;3.75;;;12.10;99.90;;;;;;5009444;28;20367;-77
2021/09/20 02:23:56;;;;;;;5.43;3.50;;;12.10;99.90;;;;;;5009754;28;20904;-82
2021/09/20 02:26:22;;;;;;;5.68;4.00;;;12.00;99.90;;;;;;5009679;28;20454;-81
2021/09/20 02:28:47;;;;;;;7.43;4.00;;;11.90;99.90;;;;;;5009195;28;20777;-81
2021/09/20 02:31:13;;;;;;;4.70;3.40;;;11.90;99.90;;;;;;5009242;28;20421;-79
2021/09/20 02:33:39;;;;;;;4.30;3.50;;;11.90;99.90;;;;;;5009121;28;20471;-79
2021/09/20 02:36:06;;;;;;;5.97;3.80;;;11.90;99.90;;;;;;5009245;28;20462;-82
2021/09/20 02:38:33;;;;;;;4.30;3.20;;;11.90;99.90;;;;;;5009021;28;20899;-81
2021/09/20 02:40:58;;;;;;;4.80;3.83;;;11.90;99.90;;;;;;5007580;28;20419;-81
2021/09/20 02:43:25;;;;;;;5.20;3.40;;;12.00;99.90;;;;;;5008984;28;20422;-81
2021/09/20 02:45:51;;;;;;;5.63;3.60;;;12.00;99.90;;;;;;5009223;28;20468;-81
2021/09/20 02:48:16;;;;;;;5.22;3.58;;;12.10;99.90;;;;;;5009007;28;20749;-80
2021/09/20 02:50:42;;;;;;;4.93;3.33;;;12.10;99.90;;;;;;5009002;28;20419;-80
2021/09/20 02:53:08;;;;;;;5.47;3.90;;;12.10;99.90;;;;;;5008922;28;20394;-77
2021/09/20 02:55:34;;;;;;;4.57;3.45;;;12.10;99.90;;;;;;5011081;28;20383;-80
2021/09/20 02:58:00;;;;;;;5.05;3.83;;;12.10;99.90;;;;;;5012608;28;20409;-80
2021/09/20 03:00:26;;;;;;;4.77;3.43;;;12.10;99.90;;;;;;5012908;28;20410;-80
2021/09/20 03:02:52;;;;;;;6.97;3.70;;;12.10;99.90;;;;;;5012557;28;20884;-80
2021/09/20 03:05:17;;;;;;;4.20;3.40;;;12.00;99.90;;;;;;5012873;28;20383;-79
2021/09/20 03:07:43;;;;;;;7.20;3.35;;;11.90;99.90;;;;;;5012725;28;20390;-81
2021/09/20 03:10:09;;;;;;;4.30;3.57;;;11.90;99.90;;;;;;5012472;28;20387;-81
2021/09/20 03:12:35;;;;;;;6.27;4.03;;;11.90;99.90;;;;;;4994611;28;20390;-80
2021/09/20 03:15:01;;;;;;;6.72;4.05;;;11.90;99.90;;;;;;5012783;28;20409;-78
2021/09/20 03:17:26;;;;;;;5.72;3.70;;;11.90;99.90;;;;;;5012551;28;20403;-79
2021/09/20 03:19:52;;;;;;;4.57;4.00;;;11.90;99.90;;;;;;5013387;28;20394;-81
2021/09/20 03:22:17;;;;;;;7.93;3.97;;;11.90;99.90;;;;;;5012404;28;20375;-82
2021/09/20 03:24:43;;;;;;;8.05;3.90;;;11.80;99.90;;;;;;5012457;28;20375;-78
2021/09/20 03:27:09;;;;;;;6.15;3.95;;;11.80;99.90;;;;;;5012387;28;20534;-79
2021/09/20 03:29:35;;;;;;;4.47;3.72;;;11.90;99.90;;;;;;5011073;28;20885;-81
2021/09/20 03:32:01;;;;;;;4.47;3.50;;;11.90;99.90;;;;;;5012480;28;20379;-79
2021/09/20 03:34:26;;;;;;;5.37;3.73;;;11.90;99.90;;;;;;5012311;28;20438;-79
2021/09/20 03:36:52;;;;;;;5.47;3.53;;;11.90;99.90;;;;;;5011842;28;20427;-80
2021/09/20 03:39:17;;;;;;;6.03;3.80;;;11.90;99.90;;;;;;5012067;28;20932;-79
2021/09/20 03:41:43;;;;;;;6.70;3.70;;;12.00;99.90;;;;;;5012001;28;20413;-77
2021/09/20 03:44:09;;;;;;;6.60;3.80;;;11.90;99.90;;;;;;5011892;28;20379;-80
2021/09/20 03:46:34;;;;;;;6.03;3.70;;;11.90;99.90;;;;;;5011842;28;20873;-79
2021/09/20 03:49:00;;;;;;;6.13;3.60;;;11.80;99.90;;;;;;5012138;28;20375;-79
2021/09/20 03:51:25;;;;;;;5.90;3.88;;;11.90;99.90;;;;;;5012202;28;20442;-79
2021/09/20 03:53:51;;;;;;;5.30;3.60;;;11.80;99.90;;;;;;5011843;28;20430;-78
2021/09/20 03:56:16;;;;;;;5.20;3.60;;;11.80;99.90;;;;;;5011970;28;20974;-81
2021/09/20 03:58:42;;;;;;;5.27;3.87;;;11.70;99.90;;;;;;5011436;28;20406;-83
2021/09/20 04:01:08;;;;;;;8.43;4.00;;;11.70;99.90;;;;;;5011698;28;20399;-79
2021/09/20 04:03:33;;;;;;;9.82;4.30;;;11.60;99.90;;;;;;5009931;28;20384;-81
2021/09/20 04:05:59;;;;;;;6.83;4.00;;;11.50;99.90;;;;;;4993627;28;20914;-79
2021/09/20 04:08:28;;;;;;;6.70;3.87;;;11.60;99.90;;;;;;5010276;28;20387;-81
2021/09/20 04:10:55;;;;;;;5.97;3.50;;;11.60;99.90;;;;;;5011958;28;20393;-79
2021/09/20 04:13:20;;;;;;;5.40;4.13;;;11.60;99.90;;;;;;5012338;28;20441;-82
2021/09/20 04:15:47;;;;;;;5.10;3.40;;;11.70;99.90;;;;;;5012232;28;20387;-78
2021/09/20 04:18:12;;;;;;;4.50;3.53;;;11.80;99.90;;;;;;5011807;28;20407;-82
2021/09/20 04:20:38;;;;;;;5.50;3.38;;;11.70;99.90;;;;;;4993991;28;20402;-79
2021/09/20 04:23:03;;;;;;;7.13;3.80;;;11.80;99.90;;;;;;4993980;28;20816;-82
2021/09/20 04:25:29;;;;;;;6.75;3.88;;;11.80;99.90;;;;;;5011493;28;20379;-77
2021/09/20 04:27:54;;;;;;;6.40;3.97;;;11.80;99.90;;;;;;4993664;28;20382;-79
2021/09/20 04:30:20;;;;;;;6.17;3.80;;;11.80;99.90;;;;;;5011935;28;20371;-78
2021/09/20 04:32:46;;;;;;;7.43;3.95;;;11.80;99.90;;;;;;5012052;28;20414;-82
2021/09/20 04:35:12;;;;;;;13.47;4.50;;;11.80;99.90;;;;;;5010370;28;20391;-82
2021/09/20 04:37:37;;;;;;;13.43;4.63;;;11.90;99.90;;;;;;5011006;28;20507;-78
2021/09/20 04:40:05;;;;;;;6.93;4.17;;;11.80;99.90;;;;;;5011594;28;20379;-77
2021/09/20 04:42:31;;;;;;;5.45;3.63;;;11.80;99.90;;;;;;5011401;28;20416;-78
2021/09/20 04:44:57;;;;;;;4.85;3.63;;;11.80;99.90;;;;;;5011224;28;20355;-82
2021/09/20 04:47:22;;;;;;;4.15;3.75;;;11.80;99.90;;;;;;5010311;28;20399;-82
2021/09/20 04:49:48;;;;;;;4.50;3.70;;;11.80;99.90;;;;;;5010752;28;20383;-80
2021/09/20 04:52:14;;;;;;;5.03;4.00;;;11.80;99.90;;;;;;5010813;28;20379;-78
2021/09/20 04:54:39;;;;;;;4.90;3.70;;;11.60;99.90;;;;;;5010463;28;21805;-80
2021/09/20 04:57:05;;;;;;;6.20;3.70;;;11.70;99.90;;;;;;5009720;28;20397;-80
2021/09/20 04:59:30;;;;;;;6.72;3.88;;;11.70;99.90;;;;;;5009672;28;20442;-81
2021/09/20 05:01:56;;;;;;;6.47;4.00;;;11.60;99.90;;;;;;5009397;28;20391;-79
2021/09/20 05:04:22;;;;;;;7.17;4.00;;;11.70;99.90;;;;;;5007866;28;20386;-79
2021/09/20 05:06:47;;;;;;;5.82;4.13;;;11.70;99.90;;;;;;4991887;28;20487;-79
2021/09/20 05:09:13;;;;;;;5.10;4.10;;;11.70;99.90;;;;;;5009978;28;20395;-80
2021/09/20 05:11:39;;;;;;;6.35;3.67;;;11.70;99.90;;;;;;5007100;28;20375;-81
2021/09/20 05:14:05;;;;;;;5.43;3.95;;;11.70;99.90;;;;;;5014574;28;20383;-80
2021/09/20 05:16:31;;;;;;;8.68;3.90;;;11.70;99.90;;;;;;5009386;28;20403;-80
2021/09/20 05:18:56;;;;;;;5.03;3.95;;;11.70;99.90;;;;;;5008180;28;20785;-80
2021/09/20 05:21:22;;;;;;;4.78;3.88;;;11.70;99.90;;;;;;5017300;28;20714;-77
2021/09/20 05:23:50;;;;;;;4.80;3.60;;;11.70;99.90;;;;;;4999573;28;20383;-77
2021/09/20 05:26:16;;;;;;;5.72;4.00;;;11.70;99.90;;;;;;5007702;28;20387;-80
2021/09/20 05:28:42;;;;;;;4.60;4.00;;;11.80;99.90;;;;;;5009183;28;20474;-77
2021/09/20 05:31:07;;;;;;;5.37;3.40;;;11.90;99.90;;;;;;5009456;28;20466;-81
2021/09/20 05:33:34;;;;;;;5.35;3.50;;;12.00;99.90;;;;;;5009637;28;20390;-80
2021/09/20 05:36:04;;;;;;;3.95;3.42;;;12.00;99.90;;;;;;5005521;28;20930;-79
2021/09/20 05:38:31;;;;;;;5.10;3.50;;;12.00;99.90;;;;;;5009440;28;20394;-79
2021/09/20 05:40:57;;;;;;;5.43;3.72;;;12.10;99.90;;;;;;5009210;28;20379;-81
2021/09/20 05:43:22;;;;;;;8.67;4.17;;;12.10;99.90;;;;;;5008388;28;20464;-81
2021/09/20 05:45:48;;;;;;;5.90;3.63;;;12.10;99.90;;;;;;5009049;28;20398;-78
2021/09/20 05:48:15;;;;;;;7.63;4.18;;;12.10;99.90;;;;;;5009189;28;20379;-80
2021/09/20 05:50:42;;;;;;;5.00;3.63;;;12.20;99.90;;;;;;5009299;28;20367;-80
2021/09/20 05:53:08;;;;;;;6.43;3.75;;;12.30;99.90;;;;;;4991511;28;20733;-78
2021/09/20 05:55:33;;;;;;;6.03;3.77;;;12.40;99.90;;;;;;5008902;28;20383;-79
2021/09/20 05:57:59;;;;;;;4.93;3.97;;;12.40;99.90;;;;;;5008979;28;20411;-78
2021/09/20 06:00:25;;;;;;;5.80;3.88;;;12.30;99.90;;;;;;5008780;28;20375;-78
2021/09/20 06:02:50;;;;;;;4.70;3.60;;;12.40;99.90;;;;;;4991462;28;20395;-79
2021/09/20 06:05:16;;;;;;;7.53;4.70;;;12.40;99.90;;;;;;5008590;28;20378;-80
2021/09/20 06:07:43;;;;;;;4.80;3.90;;;12.40;99.90;;;;;;4991231;28;20429;-77
2021/09/20 06:10:09;;;;;;;5.35;3.88;;;12.50;99.90;;;;;;5008365;28;20841;-77
2021/09/20 06:12:35;;;;;;;4.13;3.70;;;12.60;99.90;;;;;;5008826;28;20379;-80
2021/09/20 06:15:02;;;;;;;6.20;4.40;;;12.70;99.90;;;;;;5008689;28;20710;-78
2021/09/20 06:17:27;;;;;;;5.68;4.50;;;12.80;99.90;;;;;;5008673;28;20407;-77
2021/09/20 06:19:53;;;;;;;5.57;4.07;;;12.80;99.90;;;;;;5015366;28;20745;-79
2021/09/20 06:22:18;;;;;;;6.70;3.85;;;12.80;99.90;;;;;;5008578;28;20466;-79
2021/09/20 06:24:44;;;;;;;5.07;4.03;;;12.90;99.90;;;;;;5008011;28;20403;-80
2021/09/20 06:27:10;;;;;;;5.93;4.07;;;13.10;99.90;;;;;;5008319;28;21008;-79
2021/09/20 06:29:35;;;;;;;6.07;3.88;;;13.10;99.90;;;;;;5008125;28;20474;-80
2021/09/20 06:32:01;;;;;;;4.03;3.50;;;13.20;99.90;;;;;;5008472;28;20387;-81
2021/09/20 06:34:27;;;;;;;7.53;4.20;;;13.20;99.90;;;;;;5008568;28;20442;-79
2021/09/20 06:36:53;;;;;;;6.00;3.80;;;13.20;99.90;;;;;;5007097;28;20426;-79
2021/09/20 06:39:18;;;;;;;4.80;3.78;;;13.30;99.90;;;;;;5008537;28;20406;-79
2021/09/20 06:41:44;;;;;;;5.30;3.70;;;13.30;99.90;;;;;;5008598;28;20383;-79
2021/09/20 06:44:10;;;;;;;6.33;4.13;;;13.20;99.90;;;;;;5005720;28;20391;-79
2021/09/20 06:46:37;;;;;;;4.82;3.88;;;13.20;99.90;;;;;;5000848;28;20418;-77
2021/09/20 06:49:05;;;;;;;5.60;3.85;;;13.20;99.90;;;;;;5007442;28;20422;-80
2021/09/20 06:51:32;;;;;;;7.25;3.83;;;13.20;99.90;;;;;;4991062;28;20479;-78
2021/09/20 06:53:58;;;;;;;7.90;4.28;;;13.30;99.90;;;;;;5001467;28;20424;-78
2021/09/20 06:56:23;;;;;;;5.50;3.90;;;13.10;99.90;;;;;;5004364;28;20510;-79
2021/09/20 06:58:49;;;;;;;6.30;3.83;;;13.20;99.90;;;;;;4988296;28;20411;-82
2021/09/20 07:01:15;;;;;;;6.57;3.85;;;13.40;99.90;;;;;;5006192;28;20947;-80
2021/09/20 07:03:41;;;;;;;6.13;3.65;;;13.50;99.90;;;;;;5006467;28;20842;-77
2021/09/20 07:06:07;;;;;;;4.38;3.75;;;13.60;99.90;;;;;;5006240;28;20454;-81
2021/09/20 07:08:33;;;;;;;5.88;4.07;;;13.70;99.90;;;;;;5006321;28;20816;-77
2021/09/20 07:10:59;;;;;;;4.68;3.95;;;13.80;99.90;;;;;;5006712;28;20363;-83
2021/09/20 07:13:25;;;;;;;5.10;3.90;;;13.70;99.90;;;;;;5006925;28;20428;-78
2021/09/20 07:15:51;;;;;;;4.07;3.30;;;13.70;99.90;;;;;;5007501;28;20634;-80
2021/09/20 07:18:17;;;;;;;3.92;3.53;;;13.70;99.90;;;;;;5007433;28;20900;-79
2021/09/20 07:20:44;;;;;;;5.38;3.75;;;13.80;99.90;;;;;;5007155;28;20387;-81
2021/09/20 07:23:11;;;;;;;5.93;3.83;;;13.80;99.90;;;;;;5001069;28;20485;-78
2021/09/20 07:25:37;;;;;;;6.32;3.85;;;13.80;99.90;;;;;;5005459;28;20387;-80
2021/09/20 07:28:03;;;;;;;5.57;3.80;;;13.80;99.90;;;;;;4998303;28;20405;-84
2021/09/20 07:30:28;;;;;;;6.13;3.73;;;13.70;99.90;;;;;;4998030;28;20381;-81
2021/09/20 07:32:54;;;;;;;5.63;4.13;;;13.70;99.90;;;;;;4996579;28;20403;-79
2021/09/20 07:35:20;;;;;;;6.05;3.70;;;13.60;99.90;;;;;;5004755;28;20372;-81
2021/09/20 07:37:48;;;;;;;10.93;4.03;;;13.70;99.90;;;;;;5007575;28;20462;-82
2021/09/20 07:40:15;;;;;;;5.00;3.50;;;13.70;99.90;;;;;;5007612;28;20510;-78
2021/09/20 07:42:42;;;;;;;5.03;3.90;;;13.80;99.90;;;;;;5008562;28;20420;-87
2021/09/20 07:45:10;;;;;;;6.82;4.15;;;13.80;99.90;;;;;;5011524;28;20462;-82
2021/09/20 07:47:36;;;;;;;7.40;3.90;;;13.80;99.90;;;;;;5011279;28;20387;-79
2021/09/20 07:50:03;;;;;;;5.35;3.30;;;13.80;99.90;;;;;;5010733;28;20429;-80
2021/09/20 07:52:29;;;;;;;5.78;3.80;;;13.80;99.90;;;;;;5010845;28;20379;-82
2021/09/20 07:54:54;;;;;;;5.43;3.60;;;13.90;99.90;;;;;;5010310;28;20471;-80
2021/09/20 07:57:20;;;;;;;11.93;4.40;;;13.90;99.90;;;;;;5006764;28;20411;-77
2021/09/20 07:59:46;;;;;;;6.30;3.70;;;14.10;99.90;;;;;;5009425;28;20383;-78
2021/09/20 08:02:11;;;;;;;7.03;3.87;;;14.20;99.90;;;;;;5010781;28;20383;-85
2021/09/20 08:04:37;;;;;;;4.88;3.70;;;14.30;99.90;;;;;;5010729;28;20467;-82
2021/09/20 08:07:03;;;;;;;5.03;3.83;;;14.20;99.90;;;;;;5011106;28;20947;-87
2021/09/20 08:09:29;;;;;;;6.60;3.63;;;14.20;99.90;;;;;;5009729;28;20385;-78
2021/09/20 08:11:55;;;;;;;3.95;3.50;;;14.10;99.90;;;;;;5010627;28;20745;-83
2021/09/20 08:14:20;;;;;;;5.83;4.20;;;14.20;99.90;;;;;;5010853;28;20375;-83
2021/09/20 08:16:49;;;;;;;7.18;3.80;;;14.50;99.90;;;;;;5010446;28;20801;-82
2021/09/20 08:19:14;;;;;;;8.75;3.70;;;14.70;99.90;;;;;;4992990;28;20399;-78
2021/09/20 08:21:40;;;;;;;5.30;3.65;;;14.80;99.90;;;;;;5010676;28;20406;-80
2021/09/20 08:24:05;;;;;;;5.60;3.60;;;14.80;99.90;;;;;;5009459;28;20807;-81
2021/09/20 08:26:31;;;;;;;4.30;3.55;;;14.90;99.90;;;;;;5000392;28;20379;-79
2021/09/20 08:28:57;;;;;;;4.60;3.37;;;15.30;99.90;;;;;;5002002;28;20446;-80
2021/09/20 08:31:23;;;;;;;4.35;3.33;;;15.30;99.90;;;;;;5000326;28;20377;-83
2021/09/20 08:33:48;;;;;;;5.93;3.20;;;15.40;99.90;;;;;;5001013;28;20387;-83
2021/09/20 08:36:14;;;;;;;4.53;3.30;;;15.60;99.90;;;;;;5009711;28;20418;-84
2021/09/20 08:38:40;;;;;;;5.13;3.35;;;15.80;99.90;;;;;;5010129;28;20992;-81
2021/09/20 08:41:06;;;;;;;6.85;3.65;;;15.70;99.90;;;;;;5010323;28;20379;-80
2021/09/20 08:43:34;;;;;;;5.32;3.17;;;15.50;99.90;;;;;;5010440;28;20470;-81
2021/09/20 08:46:03;;;;;;;8.55;3.63;;;15.60;99.90;;;;;;5010342;28;20419;-81
2021/09/20 08:49:00;;;;;;;4.75;3.55;;;15.80;99.90;;;;;;5009099;28;20415;-78
2021/09/20 08:51:26;;;;;;;4.93;3.10;;;15.80;99.90;;;;;;4978693;28;21649;-81
2021/09/20 08:53:52;;;;;;;4.23;3.27;;;15.80;99.90;;;;;;5009532;28;20390;-84
2021/09/20 08:56:17;;;;;;;4.67;3.13;;;15.90;99.90;;;;;;4991452;28;20964;-81
2021/09/20 08:58:43;;;;;;;5.35;3.53;;;16.00;99.90;;;;;;5008086;28;20873;-78
2021/09/20 09:01:08;;;;;;;5.43;3.30;;;16.00;99.90;;;;;;5006898;28;20478;-81
2021/09/20 09:03:34;;;;;;;4.38;3.30;;;16.30;99.90;;;;;;4991998;28;20379;-78
2021/09/20 09:06:00;;;;;;;4.13;3.00;;;16.50;99.90;;;;;;5008515;28;20387;-87
2021/09/20 09:08:40;;;;;;;4.35;3.35;;;16.60;99.90;;;;;;5008560;28;20461;-83
2021/09/20 09:11:08;;;;;;;3.85;3.10;;;16.60;99.90;;;;;;5004926;28;20836;-79
2021/09/20 09:13:39;;;;;;;5.85;3.45;;;16.70;99.90;;;;;;5013376;28;20967;-78
2021/09/20 09:16:31;;;;;;;4.68;2.95;;;16.50;99.90;;;;;;5007463;28;20482;-82
2021/09/20 09:19:04;;;;;;;5.88;3.35;;;16.60;99.90;;;;;;5000191;28;20477;-83
2021/09/20 09:21:37;;;;;;;6.22;3.47;;;16.60;99.90;;;;;;5008046;28;20395;-82
2021/09/20 09:24:24;;;;;;;5.73;3.47;;;16.80;99.90;;;;;;5007459;28;20454;-78
2021/09/20 09:26:57;;;;;;;4.38;3.10;;;16.90;99.90;;;;;;5006314;28;20398;-81
2021/09/20 09:29:23;;;;;;;5.57;3.40;;;17.00;99.90;;;;;;4998267;28;20506;-78
2021/09/20 09:31:55;;;;;;;4.50;3.00;;;17.20;99.90;;;;;;4990669;28;20390;-82
2021/09/20 09:34:23;;;;;;;6.47;3.50;;;17.50;99.90;;;;;;4988885;28;20404;-80
2021/09/20 09:36:50;;;;;;;8.35;3.33;;;17.40;99.90;;;;;;5007884;28;20397;-83
2021/09/20 09:39:30;;;;;;;4.57;3.10;;;17.20;99.90;;;;;;5008804;28;20412;-83
2021/09/20 09:41:56;;;;;;;4.80;3.47;;;17.20;99.90;;;;;;5007830;28;20899;-82
2021/09/20 09:44:34;;;;;;;4.13;3.20;;;17.40;99.90;;;;;;5008943;28;20869;-81
2021/09/20 09:47:00;;;;;;;8.13;3.00;;;17.50;99.90;;;;;;5007696;28;20379;-83
2021/09/20 09:49:28;;;;;;;4.10;2.63;;;17.60;99.90;;;;;;5007384;28;20414;-78
2021/09/20 09:52:10;;;;;;;4.28;3.10;;;17.90;99.90;;;;;;5005934;28;20673;-79
2021/09/20 09:54:40;;;;;;;4.17;3.07;;;18.00;99.90;;;;;;5008034;28;20427;-79
2021/09/20 09:57:10;;;;;;;4.73;3.17;;;17.80;99.90;;;;;;5008003;28;20375;-82
2021/09/20 09:59:36;;;;;;;5.43;3.50;;;17.70;99.90;;;;;;4989714;28;20402;-80
2021/09/20 10:02:16;;;;;;;4.28;3.03;;;17.50;99.90;;;;;;4989614;28;20396;-83
2021/09/20 10:04:55;;;;;;;6.40;2.90;;;17.20;99.90;;;;;;4993176;28;20775;-82
2021/09/20 10:07:32;;;;;;;5.50;3.33;;;17.20;99.90;;;;;;4987906;28;20875;-81
2021/09/20 10:10:00;;;;;;;4.28;3.20;;;16.80;99.90;;;;;;4986945;28;20763;-81
2021/09/20 10:12:28;;;;;;;3.50;2.90;;;16.70;99.90;;;;;;4988438;28;20455;-82
2021/09/20 10:14:58;;;;;;;5.15;3.50;;;17.00;99.90;;;;;;4994822;28;20391;-84
2021/09/20 10:17:26;;;;;;;4.63;3.15;;;17.40;99.90;;;;;;5028275;28;20377;-80
2021/09/20 10:19:52;;;;;;;4.72;3.15;;;17.50;99.90;;;;;;5028748;28;20378;-80
2021/09/20 10:22:19;;;;;;;4.63;2.90;;;17.70;99.90;;;;;;5028909;28;20944;-81
2021/09/20 10:24:47;;;;;;;4.70;3.08;;;17.70;99.90;;;;;;5012665;28;20371;-83
2021/09/20 10:27:15;;;;;;;4.78;3.17;;;17.60;99.90;;;;;;5008333;28;20737;-80
2021/09/20 10:29:46;;;;;;;4.68;3.35;;;17.40;99.90;;;;;;5008704;28;20876;-80
2021/09/20 10:32:12;;;;;;;5.75;3.13;;;17.00;99.90;;;;;;5007331;28;20477;-80
2021/09/20 10:34:39;;;;;;;3.40;3.10;;;16.90;99.90;;;;;;5008737;28;20411;-79
2021/09/20 10:37:08;;;;;;;5.60;2.90;;;17.20;99.90;;;;;;4991673;28;20481;-84
2021/09/20 10:39:54;;;;;;;5.07;3.00;;;17.40;99.90;;;;;;5005988;28;20402;-83
2021/09/20 10:42:46;;;;;;;3.47;2.97;;;17.60;99.90;;;;;;5008749;28;20433;-82
2021/09/20 10:45:44;;;;;;;3.80;3.03;;;17.20;99.90;;;;;;5008749;28;20395;-82
2021/09/20 10:48:15;;;;;;;5.20;3.15;;;16.70;99.90;;;;;;5009742;28;20383;-80
2021/09/20 10:50:54;;;;;;;3.43;2.70;;;16.80;99.90;;;;;;5008650;28;20465;-77
2021/09/20 10:53:32;;;;;;;4.60;3.15;;;16.80;99.90;;;;;;5006703;28;20395;-83
2021/09/20 10:56:07;;;;;;;4.43;3.30;;;17.00;99.90;;;;;;5009185;28;20510;-81
2021/09/20 10:58:33;;;;;;;4.30;3.13;;;17.40;99.90;;;;;;4991233;28;20450;-85
2021/09/20 11:01:11;;;;;;;4.65;3.08;;;17.90;99.90;;;;;;4991570;28;20458;-82
2021/09/20 11:03:50;;;;;;;3.20;2.80;;;18.40;99.90;;;;;;5008856;28;20375;-79
2021/09/20 11:06:39;;;;;;;4.00;3.15;;;18.80;99.90;;;;;;4985921;28;20400;-80
2021/09/20 11:09:08;;;;;;;3.25;2.78;;;18.70;99.90;;;;;;4987611;28;20460;-81
2021/09/20 11:11:44;;;;;;;3.72;2.80;;;18.80;99.90;;;;;;4987886;28;20447;-82
2021/09/20 11:14:18;;;;;;;3.92;2.97;;;18.80;99.90;;;;;;4996508;28;20409;-78
2021/09/20 11:16:44;;;;;;;4.20;3.05;;;18.90;99.90;;;;;;5004625;28;20387;-81
2021/09/20 11:19:28;;;;;;;3.58;2.72;;;18.90;99.90;;;;;;5012122;28;20423;-78
2021/09/20 11:22:06;;;;;;;3.78;2.85;;;18.50;99.90;;;;;;5012223;28;20466;-78
2021/09/20 11:24:34;;;;;;;6.50;3.13;;;18.10;99.90;;;;;;5012353;28;20375;-83
2021/09/20 11:27:00;;;;;;;5.18;2.92;;;17.80;99.90;;;;;;5012575;28;20414;-80
2021/09/20 11:29:27;;;;;;;3.35;2.90;;;17.60;99.90;;;;;;5012195;28;20520;-82
2021/09/20 11:31:53;;;;;;;3.60;2.92;;;17.40;99.90;;;;;;5010629;28;20880;-80
2021/09/20 11:34:30;;;;;;;80.70;11.20;;;17.30;99.90;;;;;;5010569;28;20892;-78
2021/09/20 11:37:18;;;;;;;34.30;5.88;;;17.20;99.90;;;;;;5011767;28;20489;-81
2021/09/20 11:39:45;;;;;;;24.23;5.03;;;17.20;99.90;;;;;;5010642;28;20480;-78
2021/09/20 11:42:12;;;;;;;6.30;3.55;;;16.90;99.90;;;;;;5011530;28;20863;-82
2021/09/20 11:44:58;;;;;;;7.65;3.30;;;16.70;99.90;;;;;;5011911;28;20415;-79
2021/09/20 11:47:27;;;;;;;10.93;3.85;;;16.50;99.90;;;;;;5010587;28;20418;-78
2021/09/20 11:50:00;;;;;;;10.13;3.88;;;16.40;99.90;;;;;;5010776;28;20387;-82
2021/09/20 11:52:40;;;;;;;4.60;3.08;;;16.30;99.90;;;;;;5011658;28;20413;-79
2021/09/20 11:55:37;;;;;;;4.00;3.00;;;16.30;99.90;;;;;;5010926;28;20391;-80
2021/09/20 11:58:06;;;;;;;5.38;3.20;;;16.10;99.90;;;;;;4998296;28;20419;-80
2021/09/20 12:00:34;;;;;;;5.00;3.30;;;16.00;99.90;;;;;;5011623;28;20814;-79
2021/09/20 12:03:03;;;;;;;6.28;3.58;;;15.80;99.90;;;;;;5011184;28;20808;-80
2021/09/20 12:05:34;;;;;;;27.73;5.28;;;15.80;99.90;;;;;;5011638;28;20745;-79
2021/09/20 12:08:04;;;;;;;3.85;3.30;;;15.90;99.90;;;;;;5012100;28;20379;-79
2021/09/20 12:10:40;;;;;;;8.32;3.45;;;16.00;99.90;;;;;;5011680;28;20388;-80
2021/09/20 12:13:27;;;;;;;4.50;3.33;;;16.00;99.90;;;;;;5011415;28;20478;-81
2021/09/20 12:15:55;;;;;;;9.80;4.23;;;15.80;99.90;;;;;;4999028;28;20412;-83
2021/09/20 12:18:25;;;;;;;5.85;3.75;;;15.70;99.90;;;;;;5007086;28;20449;-80
2021/09/20 12:20:54;;;;;;;5.10;3.55;;;15.70;99.90;;;;;;5004992;28;20393;-78
2021/09/20 12:23:27;;;;;;;15.95;4.30;;;15.80;99.90;;;;;;5008512;28;20443;-84
2021/09/20 12:26:05;;;;;;;6.65;3.63;;;15.90;99.90;;;;;;5006199;28;20380;-78
2021/09/20 12:28:34;;;;;;;27.25;5.72;;;16.00;99.90;;;;;;5004097;28;20385;-80
2021/09/20 12:31:04;;;;;;;12.27;3.83;;;16.10;99.90;;;;;;5006708;28;20764;-79
2021/09/20 12:33:33;;;;;;;10.35;4.07;;;16.10;99.90;;;;;;5015223;28;20391;-79
2021/09/20 12:35:59;;;;;;;4.13;3.35;;;16.20;99.90;;;;;;5007745;28;20390;-78
2021/09/20 12:38:29;;;;;;;9.90;4.03;;;16.30;99.90;;;;;;5006739;28;20414;-81
2021/09/20 12:40:59;;;;;;;11.05;4.45;;;16.10;99.90;;;;;;5006231;28;20514;-82
2021/09/20 12:43:26;;;;;;;7.10;3.47;;;16.10;99.90;;;;;;4990380;28;20731;-81
2021/09/20 12:45:53;;;;;;;24.60;4.82;;;16.20;99.90;;;;;;5002775;28;20461;-81
2021/09/20 12:48:33;;;;;;;12.80;4.47;;;16.20;99.90;;;;;;5001576;28;20406;-77